Terminal Aerodrome Forecast
Issued by NWS Atlanta, GA

Home | Current Version | Previous Version | Text Only | Print | Product List | Glossary On
Versions: 1 2 3 4 5 6 7 8 9 10 11 12 13 14 15 16 17 18 19 20 21 22 23
000
FTUS42 KFFC 212032 AAA
TAFMCN
TAF AMD
KMCN 212032Z 2121/2218 08008KT P6SM OVC022
     FM220200 09006KT 6SM BR OVC012
     FM220400 09005KT 5SM -DZ BR OVC007
     FM220900 07005KT 2SM -RADZ BR OVC004
     FM221600 07006KT 4SM -DZ BR OVC006=

USA.gov is the U.S. government's official web portal to all federal, state and local government web resources and services.